AV - LB | Pilotos de la V.A




 METAR AND TAF INFORMATION
METAR FOR KRNT
ADDS - METARS form results

(0209 UTC 19 May 2021)
Data provider http://aviationweather.gov/metar/data/
 
METAR text: KRNT 190207Z 00000KT 10SM VCTS FEW048 BKN060 BKN090 11/05 A3011 RMK AO2 T01110050
Conditions at: KRNT (RENTON , WA, US) observed 0207 UTC 19 May 2021
Temperature: 11.1°C (52°F)
Dewpoint: 5.0°C (41°F) [RH = 66%]
Pressure (altimeter): 30.11 inches Hg (1019.7 mb)
Winds: calm
Visibility: 10 or more miles (16+ km)
Ceiling: 6000 feet AGL
Clouds: few clouds at 4800 feet AGL
broken clouds at 6000 feet AGL
broken clouds at 9000 feet AGL
Weather: VCTS  (thunderstorm in vicinity)

METAR text: KRNT 190153Z 35007KT 10SM SCT048 BKN060 11/04 A3011 RMK AO2 TSB32 SLP201 T01110044
Conditions at: KRNT (RENTON , WA, US) observed 0153 UTC 19 May 2021
Temperature: 11.1°C (52°F)
Dewpoint: 4.4°C (40°F) [RH = 63%]
Pressure (altimeter): 30.11 inches Hg (1019.7 mb)
[Sea-level pressure: 1020.1 mb]
Winds: from the N (350 degrees) at 8 MPH (7 knots; 3.6 m/s)
Visibility: 10 or more miles (16+ km)
Ceiling: 6000 feet AGL
Clouds: scattered clouds at 4800 feet AGL
broken clouds at 6000 feet AGL
Weather: no significant weather observed at this time

METAR text: KRNT 190138Z 33008KT 10SM TS BKN055 12/05 A3011 RMK AO2 TSB32 T01170050
Conditions at: KRNT (RENTON , WA, US) observed 0138 UTC 19 May 2021
Temperature: 11.7°C (53°F)
Dewpoint: 5.0°C (41°F) [RH = 63%]
Pressure (altimeter): 30.11 inches Hg (1019.7 mb)
Winds: from the NNW (330 degrees) at 9 MPH (8 knots; 4.1 m/s)
Visibility: 10 or more miles (16+ km)
Ceiling: 5500 feet AGL
Clouds: broken clouds at 5500 feet AGL
Weather: TS  (thunderstorm)

 AIRPORT MAP

 RUNWAY INFORMATION
Runway 16 Runway length 5382 ft Runway width 200 ft
Runway elevation 24 ft Runway displaced threshold 300 ft Runway heading 174
Runway 34 Runway length 5382 ft Runway width 200 ft
Runway elevation 32 ft Runway displaced threshold 340 ft Runway heading 354

 AIRPORT FREQUENCIES
Type A/D Name SEATTLE AP Frequency 119.2 MHZ
Type ATIS Name ATIS Frequency 126.95 MHZ
Type CTAF Name CTAF Frequency 124.7 MHZ
Type GND Name GND Frequency 121.6 MHZ
Type TWR Name TWR Frequency 124.7 MHZ
Type UNIC Name UNICOM Frequency 122.85 MHZ

 AIRPORT NEAR NAVIGATION AIDS
Type NDB Name Renton Frequency 353 KHZ